createdAt,value
2023-05-02T00:01:58.233Z,15.80
2023-05-02T00:04:25.963Z,14.43
2023-05-02T00:06:53.753Z,13.68
2023-05-02T00:09:21.929Z,13.35
2023-05-02T00:11:49.520Z,15.15
2023-05-02T00:14:16.915Z,12.73
2023-05-02T00:16:44.329Z,13.98
2023-05-02T00:19:12.488Z,15.27
2023-05-02T00:21:40.000Z,17.35
2023-05-02T00:24:07.571Z,14.35
2023-05-02T00:26:34.977Z,14.55
2023-05-02T00:29:02.584Z,15.45
2023-05-02T00:31:30.073Z,13.95
2023-05-02T00:33:57.561Z,12.18
2023-05-02T00:36:25.184Z,15.07
2023-05-02T00:38:52.630Z,15.95
2023-05-02T00:41:20.105Z,16.75
2023-05-02T00:43:47.646Z,15.07
2023-05-02T00:46:15.562Z,14.93
2023-05-02T00:48:44.105Z,16.88
2023-05-02T00:51:13.533Z,18.42
2023-05-02T00:53:41.630Z,17.88
2023-05-02T00:56:10.071Z,16.35
2023-05-02T00:58:41.103Z,14.98
2023-05-02T01:01:27.249Z,17.23
2023-05-02T01:04:02.505Z,14.88
2023-05-02T01:06:42.495Z,17.40
2023-05-02T01:09:47.853Z,14.13
2023-05-02T01:12:18.115Z,13.48
2023-05-02T01:14:50.934Z,14.45
2023-05-02T01:17:21.491Z,12.57
2023-05-02T01:19:55.126Z,19.02
2023-05-02T01:22:24.851Z,14.55
2023-05-02T01:25:06.505Z,13.80
2023-05-02T01:27:51.741Z,16.00
2023-05-02T01:30:21.568Z,15.68
2023-05-02T01:32:52.559Z,16.60
2023-05-02T01:35:22.616Z,14.38
2023-05-02T01:37:52.908Z,15.75
2023-05-02T01:40:22.839Z,16.88
2023-05-02T01:42:52.136Z,13.95
2023-05-02T01:45:22.017Z,13.70
2023-05-02T01:47:51.622Z,15.30
2023-05-02T01:50:23.425Z,14.25
2023-05-02T01:52:56.285Z,12.52
2023-05-02T01:55:25.970Z,14.65
2023-05-02T01:57:55.841Z,13.20
2023-05-02T02:00:25.856Z,13.30
2023-05-02T02:02:56.245Z,16.75
2023-05-02T02:05:25.180Z,14.45
2023-05-02T02:07:52.753Z,14.75
2023-05-02T02:10:20.647Z,13.45
2023-05-02T02:12:58.940Z,11.43
2023-05-02T02:15:29.202Z,12.80
2023-05-02T02:18:12.175Z,13.57
2023-05-02T02:20:44.029Z,15.38
2023-05-02T02:23:14.845Z,11.93
2023-05-02T02:25:45.007Z,10.68
2023-05-02T02:28:12.947Z,13.05
2023-05-02T02:30:40.443Z,14.02
2023-05-02T02:33:08.056Z,11.52
2023-05-02T02:35:42.491Z,11.95
2023-05-02T02:38:49.074Z,11.50
2023-05-02T02:41:22.522Z,9.15
2023-05-02T02:44:02.247Z,10.73
2023-05-02T02:46:51.221Z,10.15
2023-05-02T02:49:32.102Z,12.13
2023-05-02T02:52:29.393Z,13.10
2023-05-02T02:55:07.858Z,13.15
2023-05-02T02:57:46.199Z,11.88
2023-05-02T03:00:20.671Z,11.77
2023-05-02T03:02:48.958Z,12.82
2023-05-02T03:05:17.720Z,11.88
2023-05-02T03:07:45.391Z,13.65
2023-05-02T03:10:12.888Z,12.02
2023-05-02T03:12:41.498Z,12.43
2023-05-02T03:15:34.295Z,12.57
2023-05-02T03:18:01.987Z,11.80
2023-05-02T03:20:29.835Z,14.00
2023-05-02T03:22:57.457Z,12.73
2023-05-02T03:25:24.934Z,10.93
2023-05-02T03:27:53.326Z,12.65
2023-05-02T03:30:20.788Z,13.93
2023-05-02T03:32:48.392Z,10.85
2023-05-02T03:35:16.964Z,11.70
2023-05-02T03:37:46.750Z,15.18
2023-05-02T03:40:14.991Z,12.48
2023-05-02T03:42:42.656Z,11.43
2023-05-02T03:45:22.091Z,13.15
2023-05-02T03:47:51.636Z,13.65
2023-05-02T03:50:19.409Z,12.90
2023-05-02T03:52:49.242Z,11.15
2023-05-02T03:55:21.710Z,13.20
2023-05-02T03:57:49.878Z,11.85
2023-05-02T04:00:17.964Z,13.90
2023-05-02T04:02:52.839Z,15.05
2023-05-02T04:05:23.869Z,13.25
2023-05-02T04:07:51.520Z,14.50
2023-05-02T04:10:19.193Z,10.90
2023-05-02T04:12:53.353Z,13.13
2023-05-02T04:15:21.594Z,12.63
2023-05-02T04:17:51.463Z,13.35
2023-05-02T04:20:20.389Z,12.20
2023-05-02T04:22:51.705Z,10.93
2023-05-02T04:25:19.324Z,13.63
2023-05-02T04:27:47.574Z,13.90
2023-05-02T04:30:18.499Z,13.52
2023-05-02T04:32:55.067Z,12.45
2023-05-02T04:35:23.661Z,13.98
2023-05-02T04:37:51.259Z,11.05
2023-05-02T04:40:18.971Z,11.90
2023-05-02T04:42:49.819Z,11.35
2023-05-02T04:45:20.959Z,11.98
2023-05-02T04:47:49.372Z,10.60
2023-05-02T04:50:16.781Z,12.02
2023-05-02T04:52:44.962Z,10.63
2023-05-02T04:55:13.019Z,12.88
2023-05-02T04:57:41.283Z,11.60
2023-05-02T05:00:13.174Z,12.60
2023-05-02T05:02:40.734Z,10.07
2023-05-02T05:05:09.863Z,10.30
2023-05-02T05:07:37.601Z,10.27
2023-05-02T05:10:05.830Z,10.57
2023-05-02T05:12:41.273Z,12.35
2023-05-02T05:15:11.817Z,11.18
2023-05-02T05:17:42.606Z,10.63
2023-05-02T05:20:10.412Z,13.10
2023-05-02T05:22:42.670Z,9.68
2023-05-02T05:25:12.319Z,10.45
2023-05-02T05:27:40.593Z,10.02
2023-05-02T05:30:10.249Z,8.95
2023-05-02T05:32:38.119Z,9.35
2023-05-02T05:35:06.590Z,10.15
2023-05-02T05:37:34.747Z,11.40
2023-05-02T05:40:03.473Z,8.13
2023-05-02T05:42:31.194Z,11.02
2023-05-02T05:45:02.929Z,11.75
2023-05-02T05:47:30.651Z,10.40
2023-05-02T05:49:58.864Z,8.80
2023-05-02T05:52:30.229Z,9.45
2023-05-02T05:55:00.272Z,10.35
2023-05-02T05:57:29.338Z,9.98
2023-05-02T05:59:57.875Z,11.25
2023-05-02T06:02:26.636Z,9.23
2023-05-02T06:04:54.119Z,12.40
2023-05-02T06:07:24.011Z,12.80
2023-05-02T06:09:51.849Z,8.85
2023-05-02T06:12:19.328Z,8.05
2023-05-02T06:14:47.655Z,13.00
2023-05-02T06:17:15.665Z,9.07
2023-05-02T06:19:43.209Z,11.13
2023-05-02T06:22:13.812Z,8.00
2023-05-02T06:24:41.302Z,7.93
2023-05-02T06:27:08.777Z,9.73
2023-05-02T06:29:36.240Z,12.25
2023-05-02T06:32:04.345Z,12.50
2023-05-02T06:34:35.048Z,11.55
2023-05-02T06:37:02.522Z,10.55
2023-05-02T06:39:30.143Z,10.20
2023-05-02T06:41:58.615Z,7.15
2023-05-02T06:44:27.279Z,6.10
2023-05-02T06:46:56.031Z,6.35
2023-05-02T06:49:23.783Z,8.45
2023-05-02T06:51:51.232Z,8.35
2023-05-02T06:54:18.804Z,7.65
2023-05-02T06:56:46.307Z,6.43
2023-05-02T06:59:13.786Z,9.95
2023-05-02T07:01:41.538Z,6.55
2023-05-02T07:04:09.170Z,6.80
2023-05-02T07:06:36.872Z,7.80
2023-05-02T07:09:04.301Z,8.05
2023-05-02T07:11:31.849Z,6.50
2023-05-02T07:13:59.234Z,7.03
2023-05-02T07:16:26.782Z,9.25
2023-05-02T07:18:54.307Z,7.15
2023-05-02T07:21:21.871Z,8.52
2023-05-02T07:23:49.324Z,8.07
2023-05-02T07:26:18.950Z,8.20
2023-05-02T07:28:46.543Z,7.43
2023-05-02T07:31:14.143Z,8.52
2023-05-02T07:33:41.628Z,7.65
2023-05-02T07:36:09.142Z,6.63
2023-05-02T07:38:36.564Z,8.40
2023-05-02T07:41:04.020Z,6.13
2023-05-02T07:43:31.629Z,4.18
2023-05-02T07:45:59.043Z,6.60
2023-05-02T07:48:27.895Z,5.18
2023-05-02T07:50:55.615Z,5.55
2023-05-02T07:53:23.060Z,4.22
2023-05-02T07:55:50.476Z,7.00
2023-05-02T07:58:17.897Z,8.57
2023-05-02T08:00:45.528Z,4.70
2023-05-02T08:03:13.022Z,5.68
2023-05-02T08:05:40.578Z,6.35
2023-05-02T08:08:08.157Z,5.60
2023-05-02T08:10:35.539Z,6.35
2023-05-02T08:13:03.049Z,6.40
2023-05-02T08:15:30.816Z,5.43
2023-05-02T08:17:58.312Z,5.43
2023-05-02T08:20:25.802Z,10.23
2023-05-02T08:22:53.268Z,9.48
2023-05-02T08:25:21.016Z,6.28
2023-05-02T08:27:48.358Z,7.22
2023-05-02T08:30:15.938Z,9.20
2023-05-02T08:32:43.508Z,6.40
2023-05-02T08:35:11.058Z,6.95
2023-05-02T08:37:40.039Z,8.32
2023-05-02T08:40:11.884Z,6.55
2023-05-02T08:42:44.091Z,9.13
2023-05-02T08:45:14.881Z,7.55
2023-05-02T08:47:45.919Z,7.70
2023-05-02T08:50:16.228Z,8.40
2023-05-02T08:52:45.364Z,7.88
2023-05-02T08:55:13.663Z,8.65
2023-05-02T08:57:43.546Z,9.50
2023-05-02T09:00:12.017Z,11.25
2023-05-02T09:02:51.605Z,6.93
2023-05-02T09:05:23.561Z,7.65
2023-05-02T09:07:51.997Z,8.43
2023-05-02T09:10:19.653Z,9.75
2023-05-02T09:12:47.167Z,9.93
2023-05-02T09:15:19.892Z,10.10
2023-05-02T09:17:49.123Z,9.20
2023-05-02T09:20:17.089Z,9.88
2023-05-02T09:22:53.574Z,9.38
2023-05-02T09:25:21.752Z,8.82
2023-05-02T09:27:54.411Z,6.90
2023-05-02T09:30:26.605Z,10.88
2023-05-02T09:32:56.113Z,10.88
2023-05-02T09:35:23.921Z,9.38
2023-05-02T09:37:56.368Z,7.13
2023-05-02T09:40:24.733Z,9.43
2023-05-02T09:42:52.730Z,8.90
2023-05-02T09:45:22.393Z,9.60
2023-05-02T09:47:50.703Z,10.15
2023-05-02T09:50:35.182Z,11.93
2023-05-02T09:53:08.696Z,7.03
2023-05-02T09:55:36.543Z,7.93
2023-05-02T09:58:04.199Z,11.23
2023-05-02T10:00:41.569Z,8.52
2023-05-02T10:03:09.725Z,13.10
2023-05-02T10:05:39.216Z,10.35
2023-05-02T10:08:08.544Z,9.27
2023-05-02T10:10:41.211Z,12.02
2023-05-02T10:13:09.712Z,12.90
2023-05-02T10:15:44.137Z,12.82
2023-05-02T10:18:22.180Z,11.52
2023-05-02T10:20:58.664Z,13.27
2023-05-02T10:23:28.346Z,11.88
2023-05-02T10:25:59.405Z,15.05
2023-05-02T10:28:28.730Z,16.00
2023-05-02T10:30:56.341Z,17.10
2023-05-02T10:33:23.996Z,14.52
2023-05-02T10:35:51.637Z,16.27
2023-05-02T10:38:23.317Z,16.48
2023-05-02T10:40:56.587Z,12.98
2023-05-02T10:43:26.037Z,17.02
2023-05-02T10:45:54.851Z,13.60
2023-05-02T10:48:27.406Z,17.52
2023-05-02T10:50:56.220Z,17.42
2023-05-02T10:53:28.836Z,17.00
2023-05-02T10:56:35.430Z,15.27
2023-05-02T10:59:32.644Z,13.38
2023-05-02T11:02:01.712Z,13.45
2023-05-02T11:05:06.670Z,14.63
2023-05-02T11:07:36.048Z,14.07
2023-05-02T11:10:16.193Z,12.07
2023-05-02T11:12:55.406Z,14.35
2023-05-02T11:15:29.443Z,18.73
2023-05-02T11:18:11.998Z,11.50
2023-05-02T11:20:44.584Z,14.20
2023-05-02T11:23:26.309Z,12.25
2023-05-02T11:25:56.362Z,14.55
2023-05-02T11:28:47.964Z,13.77
2023-05-02T11:31:27.950Z,11.50
2023-05-02T11:34:02.520Z,13.10
2023-05-02T11:36:30.893Z,14.80
2023-05-02T11:38:58.357Z,14.85
2023-05-02T11:41:41.156Z,14.18
2023-05-02T11:44:08.800Z,12.60
2023-05-02T11:46:41.778Z,14.60
2023-05-02T11:49:10.576Z,15.10
2023-05-02T11:51:39.174Z,14.23
2023-05-02T11:54:08.100Z,12.38
2023-05-02T11:56:35.936Z,14.95
2023-05-02T11:59:04.632Z,13.98
2023-05-02T12:01:32.179Z,13.05
2023-05-02T12:04:08.016Z,14.73
2023-05-02T12:06:36.110Z,14.20
2023-05-02T12:09:14.362Z,15.25
2023-05-02T12:11:41.862Z,17.80
2023-05-02T12:14:09.595Z,17.40
2023-05-02T12:16:37.366Z,15.48
2023-05-02T12:19:05.780Z,17.17
2023-05-02T12:21:33.586Z,15.80
2023-05-02T12:24:02.383Z,18.90
2023-05-02T12:26:31.931Z,18.02
2023-05-02T12:28:59.513Z,18.60
2023-05-02T12:31:31.603Z,21.23
2023-05-02T12:34:00.430Z,15.68
2023-05-02T12:36:29.567Z,15.65
2023-05-02T12:38:59.916Z,13.82
2023-05-02T12:41:39.173Z,15.77
2023-05-02T12:44:07.934Z,16.20
2023-05-02T12:46:36.275Z,17.02
2023-05-02T12:49:09.879Z,16.17
2023-05-02T12:54:05.609Z,12.00
2023-05-02T12:56:40.538Z,14.40
2023-05-02T12:59:08.359Z,12.25
2023-05-02T13:01:36.348Z,12.93
2023-05-02T13:04:04.380Z,12.90
2023-05-02T13:06:31.963Z,11.63
2023-05-02T13:08:59.647Z,10.88
2023-05-02T13:11:27.083Z,10.75
2023-05-02T13:13:55.234Z,10.68
2023-05-02T13:16:22.724Z,14.68
2023-05-02T13:18:50.436Z,13.45
2023-05-02T13:21:17.931Z,14.60
2023-05-02T13:23:47.866Z,11.23
2023-05-02T13:26:15.285Z,15.30
2023-05-02T13:28:42.780Z,15.65
2023-05-02T13:31:10.383Z,16.48
2023-05-02T13:33:37.871Z,14.27
2023-05-02T13:36:05.530Z,17.92
2023-05-02T13:38:34.187Z,15.10
2023-05-02T13:41:01.653Z,13.70
2023-05-02T13:43:29.101Z,16.20
2023-05-02T13:45:56.674Z,16.52
2023-05-02T13:48:24.146Z,15.52
2023-05-02T13:50:51.643Z,12.80
2023-05-02T13:53:19.180Z,16.60
2023-05-02T13:55:46.773Z,11.15
2023-05-02T13:58:14.246Z,13.93
2023-05-02T14:00:42.030Z,10.68
2023-05-02T14:03:11.467Z,12.60
2023-05-02T14:05:43.969Z,12.52
2023-05-02T14:08:12.241Z,16.27
2023-05-02T14:10:39.729Z,11.65
2023-05-02T14:13:07.302Z,12.93
2023-05-02T14:15:34.850Z,9.88
2023-05-02T14:18:02.345Z,10.45
2023-05-02T14:20:29.897Z,9.25
2023-05-02T14:22:57.254Z,9.18
2023-05-02T14:25:24.707Z,9.65
2023-05-02T14:27:52.246Z,10.50
2023-05-02T14:30:19.676Z,13.07
2023-05-02T14:32:47.216Z,12.73
2023-05-02T14:35:14.829Z,12.38
2023-05-02T14:37:45.131Z,12.38
2023-05-02T14:40:14.142Z,14.75
2023-05-02T14:42:42.096Z,11.98
2023-05-02T14:45:10.547Z,13.15
2023-05-02T14:47:38.096Z,13.00
2023-05-02T14:50:06.443Z,12.85
2023-05-02T14:52:34.028Z,15.48
2023-05-02T14:55:02.582Z,11.32
2023-05-02T14:57:30.461Z,13.98
2023-05-02T14:59:57.985Z,16.27
2023-05-02T15:02:26.192Z,11.80
2023-05-02T15:04:53.704Z,15.00
2023-05-02T15:07:21.823Z,13.50
2023-05-02T15:09:49.314Z,13.90
2023-05-02T15:12:16.818Z,15.52
2023-05-02T15:14:44.251Z,12.43
2023-05-02T15:17:11.789Z,18.10
2023-05-02T15:19:39.259Z,17.42
2023-05-02T15:22:06.819Z,15.15
2023-05-02T15:24:34.268Z,14.75
2023-05-02T15:27:01.930Z,14.25
2023-05-02T15:29:29.705Z,12.73
2023-05-02T15:32:04.349Z,17.42
2023-05-02T15:34:33.765Z,11.95
2023-05-02T15:37:01.467Z,13.65
2023-05-02T15:39:28.977Z,13.32
2023-05-02T15:41:57.071Z,11.00
2023-05-02T15:44:26.320Z,14.40
2023-05-02T15:46:55.266Z,12.05
2023-05-02T15:49:24.614Z,12.48
2023-05-02T15:51:52.069Z,12.27
2023-05-02T15:54:19.478Z,13.30
2023-05-02T15:56:46.969Z,13.60
2023-05-02T15:59:14.474Z,13.52
2023-05-02T16:01:41.912Z,11.55
2023-05-02T16:04:10.164Z,12.52
2023-05-02T16:06:38.499Z,12.13
2023-05-02T16:09:06.773Z,11.77
2023-05-02T16:11:34.382Z,12.20
2023-05-02T16:14:01.913Z,8.70
2023-05-02T16:16:29.446Z,12.60
2023-05-02T16:18:56.956Z,9.43
2023-05-02T16:21:24.371Z,7.30
2023-05-02T16:23:51.869Z,7.85
2023-05-02T16:26:20.859Z,8.68
2023-05-02T16:28:48.375Z,7.53
2023-05-02T16:31:16.207Z,6.15
2023-05-02T16:33:43.771Z,7.43
2023-05-02T16:36:11.281Z,8.55
2023-05-02T16:38:38.752Z,10.00
2023-05-02T16:41:07.298Z,11.80
2023-05-02T16:43:35.059Z,6.22
2023-05-02T16:46:04.604Z,8.30
2023-05-02T16:48:32.863Z,14.57
2023-05-02T16:51:02.523Z,9.20
2023-05-02T16:53:31.572Z,8.88
2023-05-02T16:55:59.948Z,8.82
2023-05-02T16:58:30.424Z,7.85
2023-05-02T17:01:00.222Z,9.88
2023-05-02T17:03:28.972Z,10.63
2023-05-02T17:06:01.333Z,13.05
2023-05-02T17:08:29.355Z,9.80
2023-05-02T17:10:57.066Z,14.30
2023-05-02T17:13:24.643Z,8.90
2023-05-02T17:15:53.753Z,7.82
2023-05-02T17:18:22.101Z,10.40
2023-05-02T17:20:50.161Z,7.78
2023-05-02T17:23:17.735Z,9.73
2023-05-02T17:25:45.416Z,9.82
2023-05-02T17:28:12.941Z,12.65
2023-05-02T17:30:40.388Z,10.93
2023-05-02T17:33:08.377Z,10.80
2023-05-02T17:35:35.835Z,11.73
2023-05-02T17:38:03.407Z,10.38
2023-05-02T17:40:30.977Z,11.43
2023-05-02T17:42:59.461Z,14.90
2023-05-02T17:45:29.179Z,10.27
2023-05-02T17:47:57.258Z,12.38
2023-05-02T17:50:24.838Z,11.38
2023-05-02T17:52:52.443Z,9.52
2023-05-02T17:55:20.052Z,9.05
2023-05-02T17:57:47.625Z,11.63
2023-05-02T18:00:15.455Z,10.70
2023-05-02T18:02:44.125Z,8.50
2023-05-02T18:05:12.116Z,14.55
2023-05-02T18:07:39.589Z,13.07
2023-05-02T18:10:07.719Z,14.55
2023-05-02T18:12:35.915Z,14.23
2023-05-02T18:15:05.313Z,8.65
2023-05-02T18:17:33.353Z,11.77
2023-05-02T18:20:01.155Z,10.18
2023-05-02T18:22:28.856Z,14.98
2023-05-02T18:24:56.321Z,12.68
2023-05-02T18:27:23.775Z,7.63
2023-05-02T18:29:51.554Z,9.85
2023-05-02T18:32:18.992Z,7.40
2023-05-02T18:34:46.571Z,8.38
2023-05-02T18:37:14.196Z,9.57
2023-05-02T18:39:41.618Z,9.30
2023-05-02T18:42:10.565Z,13.00
2023-05-02T18:44:38.160Z,9.50
2023-05-02T18:47:05.673Z,9.20
2023-05-02T18:49:33.174Z,6.88
2023-05-02T18:52:00.621Z,7.60
2023-05-02T18:54:28.860Z,7.00
2023-05-02T18:56:56.544Z,11.93
2023-05-02T18:59:24.001Z,8.02
2023-05-02T19:01:52.112Z,8.15
2023-05-02T19:04:20.327Z,6.55
2023-05-02T19:06:48.076Z,6.90
2023-05-02T19:09:15.950Z,7.63
2023-05-02T19:11:43.344Z,6.82
2023-05-02T19:14:11.992Z,7.22
2023-05-02T19:16:40.661Z,10.65
2023-05-02T19:19:08.601Z,8.93
2023-05-02T19:21:36.245Z,9.40
2023-05-02T19:24:04.070Z,9.02
2023-05-02T19:26:31.929Z,11.85
2023-05-02T19:28:59.435Z,7.78
2023-05-02T19:31:27.135Z,8.45
2023-05-02T19:33:55.071Z,10.60
2023-05-02T19:36:24.348Z,18.58
2023-05-02T19:38:54.114Z,6.97
2023-05-02T19:41:24.944Z,8.52
2023-05-02T19:43:53.121Z,9.15
2023-05-02T19:46:20.843Z,12.27
2023-05-02T19:48:48.586Z,7.32
2023-05-02T19:51:16.048Z,11.02
2023-05-02T19:53:43.544Z,8.02
2023-05-02T19:56:11.126Z,7.45
2023-05-02T19:58:38.572Z,8.82
2023-05-02T20:01:06.012Z,9.93
2023-05-02T20:03:34.894Z,9.20
2023-05-02T20:06:02.743Z,11.45
2023-05-02T20:08:31.630Z,8.95
2023-05-02T20:10:59.044Z,7.57
2023-05-02T20:13:27.323Z,9.07
2023-05-02T20:15:54.906Z,8.85
2023-05-02T20:18:22.413Z,7.93
2023-05-02T20:20:49.942Z,8.52
2023-05-02T20:23:17.422Z,8.88
2023-05-02T20:25:45.593Z,9.80
2023-05-02T20:28:13.538Z,6.43
2023-05-02T20:30:42.127Z,6.90
2023-05-02T20:33:15.500Z,10.50
2023-05-02T20:35:44.468Z,9.23
2023-05-02T20:38:12.183Z,8.65
2023-05-02T20:40:40.874Z,6.93
2023-05-02T20:43:08.945Z,10.65
2023-05-02T20:45:36.433Z,5.45
2023-05-02T20:48:04.081Z,9.88
2023-05-02T20:50:31.632Z,8.27
2023-05-02T20:52:59.542Z,9.85
2023-05-02T20:55:27.708Z,10.48
2023-05-02T20:57:55.274Z,9.23
2023-05-02T21:00:22.868Z,9.20
2023-05-02T21:02:50.782Z,8.57
2023-05-02T21:05:18.413Z,9.48
2023-05-02T21:07:45.938Z,7.93
2023-05-02T21:10:13.699Z,9.07
2023-05-02T21:12:41.276Z,8.02
2023-05-02T21:15:08.890Z,13.95
2023-05-02T21:17:39.371Z,10.05
2023-05-02T21:20:07.658Z,12.68
2023-05-02T21:22:35.116Z,9.40
2023-05-02T21:25:02.586Z,6.57
2023-05-02T21:27:30.332Z,9.07
2023-05-02T21:29:57.767Z,9.23
2023-05-02T21:32:26.028Z,11.23
2023-05-02T21:34:53.543Z,8.68
2023-05-02T21:37:21.013Z,10.02
2023-05-02T21:39:48.496Z,8.30
2023-05-02T21:42:15.897Z,5.80
2023-05-02T21:44:43.313Z,9.63
2023-05-02T21:47:10.822Z,8.68
2023-05-02T21:49:38.329Z,9.80
2023-05-02T21:52:05.742Z,9.25
2023-05-02T21:54:33.396Z,11.90
2023-05-02T21:57:00.838Z,7.63
2023-05-02T21:59:28.389Z,10.90
2023-05-02T22:01:55.903Z,8.13
2023-05-02T22:04:24.965Z,6.65
2023-05-02T22:06:53.118Z,10.35
2023-05-02T22:09:21.088Z,12.20
2023-05-02T22:11:48.516Z,7.28
2023-05-02T22:14:15.998Z,11.20
2023-05-02T22:16:45.687Z,12.45
2023-05-02T22:19:14.742Z,8.43
2023-05-02T22:21:42.266Z,12.70
2023-05-02T22:24:43.928Z,10.10
2023-05-02T22:27:11.398Z,8.00
2023-05-02T22:29:38.835Z,9.75
2023-05-02T22:32:06.397Z,7.75
2023-05-02T22:34:33.957Z,10.70
2023-05-02T22:37:01.496Z,10.30
2023-05-02T22:39:29.099Z,8.27
2023-05-02T22:41:57.318Z,8.32
2023-05-02T22:44:24.770Z,13.10
2023-05-02T22:46:52.246Z,9.88
2023-05-02T22:49:19.888Z,12.60
2023-05-02T22:51:48.180Z,8.45
2023-05-02T22:54:16.886Z,8.73
2023-05-02T22:56:44.428Z,9.10
2023-05-02T22:59:11.866Z,14.07
2023-05-02T23:01:39.352Z,7.15
2023-05-02T23:04:07.204Z,11.55
2023-05-02T23:06:34.722Z,10.68
2023-05-02T23:09:02.209Z,10.63
2023-05-02T23:11:29.877Z,9.48
2023-05-02T23:13:57.335Z,12.27
2023-05-02T23:16:25.321Z,8.07
2023-05-02T23:18:53.098Z,8.15
2023-05-02T23:21:20.568Z,9.90
2023-05-02T23:23:48.097Z,8.05
2023-05-02T23:26:15.532Z,12.30
2023-05-02T23:28:43.006Z,11.57
2023-05-02T23:31:10.599Z,9.85
2023-05-02T23:33:38.372Z,8.45
2023-05-02T23:36:07.358Z,7.35
2023-05-02T23:38:36.241Z,7.22
2023-05-02T23:41:03.963Z,7.03
2023-05-02T23:43:31.502Z,8.00
2023-05-02T23:45:59.046Z,8.00
2023-05-02T23:48:26.488Z,8.98
2023-05-02T23:50:54.308Z,7.97
2023-05-02T23:53:21.797Z,14.18
2023-05-02T23:55:49.210Z,10.05
2023-05-02T23:58:16.753Z,11.73
